KCDN/CDN METAR and TAF weather

Enter ICAO airport designator
Station Type Date Time Source
KCDN METAR 2020/10/29 16:55 UTC NOAA

KCDN 291655Z AUTO 20010G19KT 10SM FEW024 SCT045 OVC055 26/22 A2971 RMK AO2


Station Type Date Time Source
KCDN Decoded METAR 2020/10/29 16:55 UTC NOAA

Station name not available
Oct 29, 2020 - 12:55 PM EDT / 2020.10.29 1655 UTC
Wind: from the SSW (200 degrees) at 12 MPH (10 KT) gusting to 22 MPH (19 KT):0
Visibility: 10 mile(s):0
Sky conditions: overcast
Temperature: 78 F (26 C)
Dew Point: 71 F (22 C)
Relative Humidity: 78%
Pressure (altimeter): 29.71 in. Hg (1006 hPa)
ob: KCDN 291655Z AUTO 20010G19KT 10SM FEW024 SCT045 OVC055 26/22 A2971 RMK AO2
cycle: 17

Station Type Date Time Source
KCDN TAF UTC NOAA

Error!

Example: see airport list